Rocky Mount Wilson Regional Airport
KRWI : now visible

Airfield :











YOU CAN JOIN US ON...

 
LOGIN :

Register | Disclaimer

   EN    FR    IT 

 









Legend :    VFR   Marginal VFR   IFR   Intensive IFR   Very Intensive IFR
Visi :
Ceiling :
>= 8 km
>= 3000ft
5 to 8 km
1000 to 3000 ft
1500m to 5 km
500 to 1000 ft
800 to 1500m
200 to 500 ft
< 800m
< 200 ft
Symbols :   Thunderstorms  Fog  Heavy snow  Heavy precipitations  Wind > 20 kt







- Airport Elevation : 159 ft
- IATA code : RWI


KRWI - Rocky Mount Wilson Regional

CURRENT METAR :
  • 211053Z AUTO 00000KT 10SM CLR 12/12 A3030 RMK AO2 SLP258 T01220122

EXPIRED METARs :
  • 210953Z AUTO 00000KT 10SM CLR 12/12 A3028 RMK AO2 SLP253 T01220122
  • 210853Z AUTO 00000KT 10SM CLR 13/12 A3028 RMK AO2 SLP252 T01280122 55004

TAF KRWI
Valid from the 21 at 12:00 until the 22 at 12:00 UTC


211120Z 2112/2212 22004KT P6SM FEW060
TEMPO 2207/2211 1SM BR SCT007
No reported NOTAMs for that airfield.



MET'MAP, your aeronautical weather chart ! - Copyright ORBIFLY December 2007 - Disclaimer

ORBIFLY MET'MAP TEAM :

Programming & Development : Alexandra Zaïnal
Concept & Development : Baudouin d'Aumeries
Co-Development & Prog : Marc-Olivier Méhu
Technical & hardware support : Manuel Goepfert

Contact : metmap@orbifly.com




SOURCES & CREDITS :

   NOAA       Earth
Advisory